Time;durP1;ratioP1;P1;durP2;ratioP2;P2;SDS_P1;SDS_P2;PMS_P1;PMS_P2;Temp;Humidity;BMP_temperature;BMP_pressure;BME280_temperature;BME280_humidity;BME280_pressure;Samples;Min_cycle;Max_cycle;Signal;HPM_P1;HPM_P2
2022/04/21 00:00:01;;;;;;;5.00;3.10;;;12.70;46.70;;;;;;5032328;28;20223;-32
2022/04/21 00:02:26;;;;;;;6.53;3.53;;;12.70;46.70;;;;;;5032057;28;20170;-32
2022/04/21 00:04:52;;;;;;;4.83;3.90;;;12.70;46.70;;;;;;5032216;28;20590;-32
2022/04/21 00:07:18;;;;;;;2.93;2.60;;;12.70;46.70;;;;;;5032294;28;20174;-31
2022/04/21 00:09:44;;;;;;;4.63;3.17;;;12.70;46.90;;;;;;5032063;28;20248;-31
2022/04/21 00:12:10;;;;;;;3.93;2.67;;;12.70;46.70;;;;;;5031990;28;20166;-31
2022/04/21 00:14:35;;;;;;;3.47;2.87;;;12.70;46.80;;;;;;5031968;28;20259;-32
2022/04/21 00:17:01;;;;;;;4.30;2.60;;;12.70;46.90;;;;;;5032152;28;20407;-31
2022/04/21 00:19:27;;;;;;;5.43;3.00;;;12.70;46.80;;;;;;5032012;28;20536;-32
2022/04/21 00:24:37;;;;;;;4.00;2.40;;;12.70;46.80;;;;;;5032046;28;20223;-32
2022/04/21 00:27:03;;;;;;;2.43;2.00;;;12.70;46.70;;;;;;5032033;28;20181;-32
2022/04/21 00:29:29;;;;;;;3.17;2.40;;;12.70;47.00;;;;;;5032163;28;20229;-31
2022/04/21 00:31:54;;;;;;;3.55;2.35;;;12.70;47.00;;;;;;5031718;28;20419;-31
2022/04/21 00:34:20;;;;;;;4.17;2.60;;;12.70;47.00;;;;;;5034544;28;20281;-32
2022/04/21 00:36:46;;;;;;;9.33;3.37;;;12.70;47.10;;;;;;5038430;28;20162;-32
2022/04/21 00:39:11;;;;;;;3.30;2.70;;;12.70;46.90;;;;;;5038727;28;20173;-32
2022/04/21 00:41:37;;;;;;;2.80;2.30;;;12.70;46.80;;;;;;5038190;28;20173;-32
2022/04/21 00:44:04;;;;;;;2.83;2.57;;;12.70;46.80;;;;;;5038659;28;20200;-32
2022/04/21 00:46:30;;;;;;;4.03;2.95;;;12.80;46.90;;;;;;5038711;28;20169;-32
2022/04/21 00:48:56;;;;;;;3.67;2.92;;;12.70;47.00;;;;;;5038619;28;20206;-32
2022/04/21 00:51:24;;;;;;;5.07;2.80;;;12.70;47.00;;;;;;5037937;28;20231;-32
2022/04/21 00:53:50;;;;;;;4.47;2.75;;;12.70;47.10;;;;;;5037316;28;20208;-32
2022/04/21 00:56:15;;;;;;;4.33;2.40;;;12.70;47.10;;;;;;5038286;28;20169;-32
2022/04/21 00:58:43;;;;;;;5.73;3.80;;;12.70;47.00;;;;;;5038359;28;20539;-32
2022/04/21 01:02:46;;;;;;;3.63;2.47;;;12.70;47.00;;;;;;5038056;28;20407;-32
2022/04/21 01:03:55;;;;;;;6.07;3.95;;;12.70;47.10;;;;;;5038057;28;20202;-32
2022/04/21 01:06:23;;;;;;;4.70;3.60;;;12.70;47.70;;;;;;5038292;28;20647;-32
2022/04/21 01:08:49;;;;;;;6.65;4.40;;;12.60;47.50;;;;;;5038405;28;20224;-32
2022/04/21 01:11:18;;;;;;;3.40;3.08;;;12.60;47.60;;;;;;5038280;28;20213;-32
2022/04/21 01:13:46;;;;;;;7.07;3.85;;;12.60;47.60;;;;;;5037952;28;20206;-32
2022/04/21 01:16:11;;;;;;;6.28;3.53;;;12.60;47.50;;;;;;5038092;28;20620;-31
2022/04/21 01:18:37;;;;;;;5.07;2.90;;;12.60;47.40;;;;;;5038093;28;20181;-32
2022/04/21 01:21:03;;;;;;;4.90;3.17;;;12.60;47.50;;;;;;5038052;28;20189;-32
2022/04/21 01:23:28;;;;;;;7.80;3.47;;;12.70;47.70;;;;;;5038076;28;20524;-31
2022/04/21 01:25:55;;;;;;;5.80;3.97;;;12.60;47.50;;;;;;5038107;28;20574;-32
2022/04/21 01:28:21;;;;;;;4.70;2.72;;;12.70;47.50;;;;;;5038005;28;20280;-32
2022/04/21 01:30:47;;;;;;;4.15;3.67;;;12.70;47.40;;;;;;5037748;28;20166;-31
2022/04/21 01:33:13;;;;;;;4.73;2.47;;;12.70;47.40;;;;;;5038028;28;20801;-32
2022/04/21 01:35:38;;;;;;;4.20;2.90;;;12.70;47.40;;;;;;5037895;28;20193;-31
2022/04/21 01:43:33;;;;;;;6.35;3.15;;;12.70;47.40;;;;;;5037886;28;20678;-32
2022/04/21 01:45:59;;;;;;;5.07;2.90;;;12.70;47.30;;;;;;5035235;28;20171;-31
2022/04/21 01:48:25;;;;;;;7.50;3.50;;;12.70;47.20;;;;;;5034989;28;20795;-32
2022/04/21 01:50:51;;;;;;;3.30;2.37;;;12.70;47.10;;;;;;5034827;28;20416;-32
2022/04/21 01:53:17;;;;;;;3.90;3.13;;;12.70;47.10;;;;;;5034703;28;20409;-32
2022/04/21 01:55:43;;;;;;;4.03;3.20;;;12.70;47.10;;;;;;5034572;28;20906;-32
2022/04/21 01:58:09;;;;;;;4.90;3.50;;;12.70;47.20;;;;;;5034513;28;20174;-32
2022/04/21 02:00:34;;;;;;;5.40;3.47;;;12.70;47.10;;;;;;5034347;28;20693;-32
2022/04/21 02:03:00;;;;;;;4.50;2.97;;;12.70;47.10;;;;;;5034558;28;20296;-31
2022/04/21 02:05:26;;;;;;;3.67;2.73;;;12.70;47.20;;;;;;5034459;28;20466;-32
2022/04/21 02:07:52;;;;;;;4.60;3.63;;;12.70;47.40;;;;;;5034377;28;20212;-31
2022/04/21 02:10:19;;;;;;;3.03;2.70;;;12.70;47.40;;;;;;5034293;28;20177;-32
2022/04/21 02:12:45;;;;;;;4.20;3.15;;;12.70;47.70;;;;;;5034122;28;20178;-31
2022/04/21 02:15:12;;;;;;;7.95;3.78;;;12.70;47.80;;;;;;5032854;28;20209;-32
2022/04/21 02:17:39;;;;;;;4.88;2.65;;;12.60;47.80;;;;;;5033804;28;20174;-31
2022/04/21 02:20:07;;;;;;;4.45;3.28;;;12.60;47.60;;;;;;5034114;28;20177;-32
2022/04/21 02:22:36;;;;;;;4.38;2.70;;;12.60;47.70;;;;;;5033929;28;20214;-32
2022/04/21 02:25:04;;;;;;;3.25;2.50;;;12.60;47.60;;;;;;5034178;28;20251;-31
2022/04/21 02:27:31;;;;;;;4.93;2.90;;;12.60;47.70;;;;;;5033957;28;20166;-31
2022/04/21 02:29:56;;;;;;;5.63;2.95;;;12.70;47.60;;;;;;5033951;28;20201;-32
2022/04/21 02:32:22;;;;;;;3.50;2.20;;;12.60;47.50;;;;;;5033786;28;20213;-32
2022/04/21 02:34:48;;;;;;;4.40;3.20;;;12.70;47.60;;;;;;5033906;28;20914;-32
2022/04/21 02:37:13;;;;;;;4.43;3.40;;;12.70;47.60;;;;;;5033828;28;20162;-31
2022/04/21 02:39:39;;;;;;;5.33;2.77;;;12.70;47.50;;;;;;5033776;28;20220;-32
2022/04/21 02:42:05;;;;;;;4.37;3.63;;;12.70;47.70;;;;;;5033827;28;20267;-32
2022/04/21 02:44:32;;;;;;;5.72;3.13;;;12.70;47.70;;;;;;5032515;28;20286;-32
2022/04/21 02:46:59;;;;;;;6.22;2.75;;;12.60;47.80;;;;;;5033613;28;20176;-31
2022/04/21 02:49:26;;;;;;;6.03;3.80;;;12.70;47.80;;;;;;5033675;28;20243;-32
2022/04/21 02:51:52;;;;;;;8.70;4.70;;;12.60;47.70;;;;;;5033421;28;20256;-31
2022/04/21 02:57:21;;;;;;;4.93;3.05;;;12.60;47.80;;;;;;5033475;28;20173;-31
2022/04/21 02:59:55;;;;;;;5.68;3.38;;;12.60;47.80;;;;;;5033503;28;20273;-31
2022/04/21 03:02:22;;;;;;;4.97;3.60;;;12.60;48.00;;;;;;5033491;28;20261;-32
2022/04/21 03:04:49;;;;;;;3.75;2.63;;;12.60;48.10;;;;;;5033247;28;20225;-32
2022/04/21 03:07:17;;;;;;;4.85;4.45;;;12.60;48.20;;;;;;5033312;28;20551;-31
2022/04/21 03:09:45;;;;;;;7.82;2.65;;;12.60;48.30;;;;;;5033242;28;20340;-32
2022/04/21 03:12:11;;;;;;;6.45;3.33;;;12.60;48.40;;;;;;5031869;28;20268;-32
2022/04/21 03:14:38;;;;;;;10.38;3.83;;;12.60;48.90;;;;;;5033233;28;20202;-33
2022/04/21 03:17:08;;;;;;;9.00;3.45;;;12.50;48.90;;;;;;5033316;28;20192;-33
2022/04/21 03:19:36;;;;;;;11.43;4.10;;;12.50;48.80;;;;;;5033554;28;20212;-33
2022/04/21 03:24:47;;;;;;;7.25;4.38;;;12.60;48.90;;;;;;5033386;28;20204;-33
2022/04/21 03:27:13;;;;;;;21.73;5.10;;;12.50;49.00;;;;;;5033425;28;20567;-33
2022/04/21 03:29:39;;;;;;;6.82;3.05;;;12.50;49.40;;;;;;5032690;28;20922;-33
2022/04/21 03:32:11;;;;;;;4.38;3.08;;;12.50;49.40;;;;;;5032990;28;20186;-33
2022/04/21 03:34:42;;;;;;;7.63;5.18;;;12.50;49.30;;;;;;5033053;28;20204;-33
2022/04/21 03:37:13;;;;;;;5.68;4.38;;;12.50;49.30;;;;;;5051195;22;20182;-32
2022/04/21 03:39:40;;;;;;;6.82;4.82;;;12.50;49.30;;;;;;5045655;28;20185;-29
2022/04/21 03:42:07;;;;;;;6.05;4.30;;;12.50;49.40;;;;;;5051922;28;20807;-27
2022/04/21 03:44:39;;;;;;;9.05;3.72;;;12.50;49.40;;;;;;5052746;28;20256;-28
2022/04/21 03:47:06;;;;;;;10.85;4.18;;;12.50;49.60;;;;;;5050927;28;20177;-28
2022/04/21 03:49:31;;;;;;;7.70;4.32;;;12.50;49.50;;;;;;5032442;28;20209;-29
2022/04/21 03:51:57;;;;;;;4.50;3.20;;;12.50;49.50;;;;;;5032507;28;20189;-28
2022/04/21 03:54:23;;;;;;;12.13;5.03;;;12.50;49.40;;;;;;5032557;28;20253;-29
2022/04/21 03:56:50;;;;;;;9.40;5.60;;;12.50;49.50;;;;;;5032415;28;20470;-29
2022/04/21 03:59:17;;;;;;;8.70;6.65;;;12.50;49.40;;;;;;5032429;28;20236;-28
2022/04/21 04:01:43;;;;;;;9.43;4.15;;;12.50;49.30;;;;;;5032420;28;20200;-28
2022/04/21 04:04:10;;;;;;;13.48;4.90;;;12.50;49.40;;;;;;5032236;28;20170;-28
2022/04/21 04:12:04;;;;;;;5.55;3.33;;;12.50;50.00;;;;;;5032201;28;20184;-28
2022/04/21 04:14:30;;;;;;;7.40;4.60;;;12.50;49.80;;;;;;5030909;28;20170;-28
2022/04/21 04:16:55;;;;;;;8.03;4.87;;;12.50;49.90;;;;;;5032388;28;20219;-28
2022/04/21 04:19:21;;;;;;;8.97;4.87;;;12.50;49.70;;;;;;5032120;28;20185;-29
2022/04/21 04:21:47;;;;;;;8.30;5.83;;;12.50;49.80;;;;;;5031888;28;20416;-28
2022/04/21 04:24:12;;;;;;;8.17;3.47;;;12.50;49.90;;;;;;5032139;28;20771;-27
2022/04/21 04:26:38;;;;;;;4.90;3.93;;;12.50;49.80;;;;;;5032452;28;20181;-28
2022/04/21 04:29:04;;;;;;;8.27;5.13;;;12.60;49.70;;;;;;5032152;28;20212;-28
2022/04/21 04:31:31;;;;;;;6.07;4.55;;;12.60;49.70;;;;;;5031665;28;20220;-28
2022/04/21 04:33:57;;;;;;;6.20;4.10;;;12.60;49.60;;;;;;5032158;28;20253;-27
2022/04/21 04:36:23;;;;;;;8.30;5.00;;;12.60;49.50;;;;;;5032081;28;20683;-28
2022/04/21 04:38:49;;;;;;;5.70;3.67;;;12.60;49.50;;;;;;5031924;28;21006;-30
2022/04/21 04:44:00;;;;;;;6.63;4.60;;;12.60;49.40;;;;;;5030726;28;20392;-29
2022/04/21 04:46:35;;;;;;;8.03;4.10;;;12.70;49.40;;;;;;5034303;28;20547;-29
2022/04/21 04:49:06;;;;;;;6.15;4.35;;;12.60;49.40;;;;;;5035989;28;20787;-28
2022/04/21 04:51:33;;;;;;;5.75;4.15;;;12.70;49.40;;;;;;5034354;28;20212;-28
2022/04/21 04:53:59;;;;;;;7.20;4.53;;;12.60;49.30;;;;;;5031842;28;20632;-29
2022/04/21 04:56:27;;;;;;;7.47;5.68;;;12.70;49.30;;;;;;5030671;28;20174;-29
2022/04/21 04:58:53;;;;;;;9.43;6.32;;;12.70;49.30;;;;;;5031286;28;20201;-27
2022/04/21 05:01:26;;;;;;;7.38;4.15;;;12.70;49.40;;;;;;5031463;28;20268;-28
2022/04/21 05:04:16;;;;;;;11.18;5.55;;;12.70;49.30;;;;;;5031981;28;20194;-30
2022/04/21 05:06:53;;;;;;;8.93;4.03;;;12.70;49.30;;;;;;5031818;28;20177;-29
2022/04/21 05:09:21;;;;;;;6.65;4.22;;;12.70;49.10;;;;;;5031439;28;20682;-29
2022/04/21 05:11:51;;;;;;;5.95;4.70;;;12.70;49.10;;;;;;5032312;28;20180;-28
2022/04/21 05:14:17;;;;;;;6.55;5.57;;;12.70;49.10;;;;;;5031461;28;20690;-29
2022/04/21 05:16:43;;;;;;;8.57;5.65;;;12.70;49.20;;;;;;5031454;28;20182;-29
2022/04/21 05:19:10;;;;;;;9.20;5.40;;;12.70;49.20;;;;;;5031887;28;20205;-30
2022/04/21 05:21:37;;;;;;;9.82;5.35;;;12.70;49.10;;;;;;5036450;28;20178;-28
2022/04/21 05:24:04;;;;;;;8.63;5.85;;;12.70;49.20;;;;;;5036912;28;20161;-27
2022/04/21 05:26:32;;;;;;;9.90;4.18;;;12.70;49.30;;;;;;5017933;28;20536;-28
2022/04/21 05:28:59;;;;;;;10.85;5.70;;;12.70;49.20;;;;;;5035249;28;20272;-30
2022/04/21 05:31:26;;;;;;;7.15;4.53;;;12.70;49.10;;;;;;5034977;28;20174;-29
2022/04/21 05:33:53;;;;;;;9.95;4.90;;;12.70;49.20;;;;;;5035173;28;20224;-28
2022/04/21 05:36:19;;;;;;;7.82;4.85;;;12.80;49.20;;;;;;5035339;28;20182;-29
2022/04/21 05:38:51;;;;;;;18.40;5.60;;;12.80;49.20;;;;;;5034718;28;20313;-28
2022/04/21 05:41:18;;;;;;;7.32;5.07;;;12.80;49.30;;;;;;5034864;28;20751;-29
2022/04/21 05:43:46;;;;;;;9.75;4.95;;;12.80;49.20;;;;;;5035188;28;20186;-29
2022/04/21 05:46:14;;;;;;;9.52;5.35;;;12.80;49.20;;;;;;5035119;28;20581;-29
2022/04/21 05:48:41;;;;;;;6.40;4.20;;;12.90;49.40;;;;;;5034553;28;20683;-29
2022/04/21 05:51:09;;;;;;;10.32;5.22;;;12.80;49.30;;;;;;5034763;28;20178;-29
2022/04/21 05:53:37;;;;;;;8.98;5.00;;;12.90;49.50;;;;;;5034081;28;20178;-29
2022/04/21 05:56:08;;;;;;;6.10;4.80;;;12.80;49.30;;;;;;5033715;28;20182;-28
2022/04/21 05:58:36;;;;;;;10.82;5.97;;;12.80;49.30;;;;;;5034421;28;20213;-31
2022/04/21 06:01:06;;;;;;;9.15;5.75;;;12.80;49.30;;;;;;5034267;28;20193;-29
2022/04/21 06:03:32;;;;;;;10.07;4.75;;;12.90;49.40;;;;;;5035377;28;20574;-28
2022/04/21 06:05:58;;;;;;;7.57;4.00;;;12.90;49.40;;;;;;5034425;28;20170;-30
2022/04/21 06:08:24;;;;;;;11.93;5.40;;;12.90;49.40;;;;;;5034361;28;20197;-28
2022/04/21 06:10:50;;;;;;;10.90;5.38;;;12.90;49.30;;;;;;5034153;28;20639;-30
2022/04/21 06:13:15;;;;;;;7.33;4.93;;;12.90;49.30;;;;;;5034163;28;20185;-28
2022/04/21 06:15:42;;;;;;;11.90;6.60;;;12.90;49.20;;;;;;5033981;28;20178;-29
2022/04/21 06:18:08;;;;;;;6.53;4.22;;;12.90;49.20;;;;;;5034039;28;20332;-31
2022/04/21 06:20:35;;;;;;;5.32;3.90;;;12.90;49.30;;;;;;5033881;28;20181;-30
2022/04/21 06:23:01;;;;;;;12.55;6.55;;;12.90;49.20;;;;;;5034352;28;20208;-29
2022/04/21 06:25:26;;;;;;;5.87;4.40;;;12.90;49.10;;;;;;5034175;28;20641;-30
2022/04/21 06:27:52;;;;;;;8.10;5.03;;;12.90;49.20;;;;;;5033974;28;20420;-30
2022/04/21 06:30:19;;;;;;;6.87;3.90;;;12.90;49.20;;;;;;5034113;28;20209;-29
2022/04/21 06:32:45;;;;;;;6.15;3.33;;;12.80;49.30;;;;;;5033906;28;20166;-29
2022/04/21 06:35:11;;;;;;;6.07;5.55;;;12.80;49.90;;;;;;5034106;28;20746;-29
2022/04/21 06:37:37;;;;;;;7.00;5.20;;;12.80;49.20;;;;;;5033809;28;20305;-29
2022/04/21 06:40:04;;;;;;;8.27;5.07;;;12.80;49.30;;;;;;5033787;28;20421;-31
2022/04/21 06:42:29;;;;;;;6.40;3.45;;;12.80;49.20;;;;;;5033531;28;20416;-30
2022/04/21 06:50:23;;;;;;;6.22;3.75;;;12.80;49.30;;;;;;5033784;28;20166;-29
2022/04/21 06:52:49;;;;;;;7.33;4.30;;;12.90;49.50;;;;;;5033427;28;20174;-29
2022/04/21 06:55:15;;;;;;;7.20;4.30;;;12.90;49.60;;;;;;5033786;28;20171;-30
2022/04/21 06:57:40;;;;;;;4.43;2.87;;;12.90;49.50;;;;;;5033874;28;20342;-28
2022/04/21 07:00:07;;;;;;;5.17;4.47;;;13.00;49.50;;;;;;5033622;28;20176;-28
2022/04/21 07:02:32;;;;;;;3.28;2.38;;;13.00;49.80;;;;;;5033228;28;20170;-29
2022/04/21 07:05:06;;;;;;;5.90;3.60;;;13.00;49.70;;;;;;5033368;28;20178;-28
2022/04/21 07:07:32;;;;;;;8.75;4.15;;;13.00;49.70;;;;;;5032758;28;20194;-31
2022/04/21 07:09:58;;;;;;;6.40;4.13;;;13.00;49.70;;;;;;5033028;28;20251;-28
2022/04/21 07:12:30;;;;;;;6.23;3.00;;;13.00;49.90;;;;;;5033288;28;20181;-30
2022/04/21 07:15:04;;;;;;;5.53;3.22;;;13.00;50.10;;;;;;5033337;28;20393;-30
2022/04/21 07:17:30;;;;;;;4.78;3.17;;;12.90;50.00;;;;;;5033145;28;20194;-29
2022/04/21 07:19:56;;;;;;;4.82;4.28;;;13.00;50.10;;;;;;5033330;28;20174;-29
2022/04/21 07:22:25;;;;;;;5.20;3.00;;;13.00;50.10;;;;;;5033254;28;20702;-30
2022/04/21 07:24:55;;;;;;;4.63;3.40;;;13.00;49.90;;;;;;5032931;28;20172;-30
2022/04/21 07:27:21;;;;;;;4.28;3.13;;;13.10;50.10;;;;;;5032917;28;20190;-29
2022/04/21 07:29:47;;;;;;;3.30;2.40;;;13.10;50.00;;;;;;5033096;28;20205;-28
2022/04/21 07:32:13;;;;;;;3.20;2.67;;;13.10;50.20;;;;;;5033122;28;20173;-28
2022/04/21 07:34:39;;;;;;;3.87;3.27;;;13.10;50.30;;;;;;5032779;28;20535;-28
2022/04/21 07:37:07;;;;;;;7.47;3.25;;;13.10;50.10;;;;;;5033156;28;20170;-28
2022/04/21 07:39:32;;;;;;;3.45;2.63;;;13.10;50.30;;;;;;5033035;28;20170;-30
2022/04/21 07:41:59;;;;;;;5.50;3.80;;;13.00;50.30;;;;;;5032452;28;20227;-30
2022/04/21 07:44:28;;;;;;;4.82;3.40;;;13.10;50.40;;;;;;5031704;28;20240;-30
2022/04/21 07:46:55;;;;;;;4.80;3.30;;;13.00;50.60;;;;;;5032478;28;20185;-29
2022/04/21 07:54:50;;;;;;;6.40;4.25;;;13.00;50.80;;;;;;5032477;28;20281;-29
2022/04/21 07:57:15;;;;;;;4.13;3.57;;;12.90;50.50;;;;;;5032328;28;20189;-28
2022/04/21 07:59:42;;;;;;;6.67;4.50;;;12.90;50.70;;;;;;5032212;28;20182;-28
2022/04/21 08:02:08;;;;;;;4.38;3.42;;;12.90;50.80;;;;;;5032304;28;20185;-28
2022/04/21 08:04:34;;;;;;;5.20;2.43;;;12.90;51.00;;;;;;5032553;28;20644;-29
2022/04/21 08:07:00;;;;;;;4.38;3.55;;;12.90;51.10;;;;;;5032245;28;20471;-28
2022/04/21 08:09:26;;;;;;;4.93;3.13;;;12.90;51.00;;;;;;5032424;28;20236;-28
2022/04/21 08:11:52;;;;;;;5.00;3.67;;;13.00;50.90;;;;;;5032242;28;20616;-30
2022/04/21 08:14:17;;;;;;;3.67;2.70;;;13.00;51.10;;;;;;5032063;28;20169;-28
2022/04/21 08:16:44;;;;;;;5.40;4.70;;;13.00;50.90;;;;;;5032009;28;20170;-30
2022/04/21 08:19:13;;;;;;;5.18;4.35;;;13.00;50.70;;;;;;5032225;28;20429;-29
2022/04/21 08:21:39;;;;;;;5.75;4.15;;;13.00;50.70;;;;;;5031752;28;20174;-28
2022/04/21 08:32:33;;;;;;;9.05;4.63;;;13.20;50.40;;;;;;5031782;28;20204;-28
2022/04/21 08:35:01;;;;;;;11.57;5.38;;;13.20;50.60;;;;;;5032075;28;20160;-28
2022/04/21 08:37:27;;;;;;;7.55;4.00;;;13.20;50.30;;;;;;5031886;28;20289;-30
2022/04/21 08:39:54;;;;;;;6.65;4.93;;;13.20;50.60;;;;;;5032076;28;20178;-29
2022/04/21 08:42:21;;;;;;;7.78;4.10;;;13.20;50.80;;;;;;5031872;28;20261;-29
2022/04/21 08:44:49;;;;;;;5.90;4.28;;;13.20;50.80;;;;;;5032365;28;20751;-28
2022/04/21 08:47:18;;;;;;;11.52;4.32;;;13.20;50.70;;;;;;5033220;28;20198;-28
2022/04/21 08:49:50;;;;;;;10.13;6.10;;;13.30;50.80;;;;;;5033060;28;20209;-30
2022/04/21 08:52:17;;;;;;;8.43;6.20;;;13.30;50.60;;;;;;5031775;28;20180;-28
2022/04/21 08:54:43;;;;;;;7.30;5.55;;;13.40;50.40;;;;;;5031490;28;20170;-28
2022/04/21 08:57:10;;;;;;;8.87;5.30;;;13.40;50.40;;;;;;5035613;28;20200;-28
2022/04/21 08:59:36;;;;;;;5.75;3.78;;;13.40;50.40;;;;;;5035582;28;20412;-28
2022/04/21 09:02:02;;;;;;;7.47;5.57;;;13.50;50.40;;;;;;5035402;28;20186;-29
2022/04/21 09:04:30;;;;;;;11.83;5.00;;;13.50;50.40;;;;;;5035867;28;20408;-28
2022/04/21 09:07:16;;;;;;;9.00;3.85;;;13.50;50.40;;;;;;5035538;28;20516;-28
2022/04/21 09:10:02;;;;;;;5.90;3.83;;;13.60;50.20;;;;;;5035665;28;20528;-30
2022/04/21 09:12:29;;;;;;;6.40;4.28;;;13.60;50.20;;;;;;5035213;28;20651;-30
2022/04/21 09:14:54;;;;;;;5.63;3.50;;;13.60;50.10;;;;;;5035710;28;20639;-29
2022/04/21 09:17:21;;;;;;;9.13;4.53;;;13.60;50.10;;;;;;5035288;28;20201;-28
2022/04/21 09:20:05;;;;;;;7.30;4.50;;;13.60;50.00;;;;;;5035287;28;20311;-29
2022/04/21 09:22:33;;;;;;;5.05;4.22;;;13.60;50.10;;;;;;5035015;28;20679;-30
2022/04/21 09:24:59;;;;;;;4.82;3.42;;;13.60;50.50;;;;;;5034785;28;20204;-30
2022/04/21 09:27:48;;;;;;;5.32;3.83;;;13.80;50.40;;;;;;5034951;28;20194;-28
2022/04/21 09:30:15;;;;;;;6.97;4.10;;;13.70;50.50;;;;;;5035049;28;20539;-29
2022/04/21 09:32:49;;;;;;;7.43;4.18;;;13.60;50.40;;;;;;5035201;28;20178;-30
2022/04/21 09:35:14;;;;;;;6.07;4.22;;;13.70;50.50;;;;;;5035093;28;20197;-28
2022/04/21 09:37:48;;;;;;;7.90;4.50;;;13.70;50.50;;;;;;5035066;28;20311;-28
2022/04/21 09:40:44;;;;;;;10.13;5.57;;;13.80;50.50;;;;;;5035120;28;20415;-29
2022/04/21 09:43:09;;;;;;;6.07;3.40;;;13.90;50.60;;;;;;5033163;28;20182;-30
2022/04/21 09:48:28;;;;;;;9.05;3.15;;;13.90;50.20;;;;;;5034547;28;20307;-30
2022/04/21 09:51:05;;;;;;;8.35;4.55;;;14.00;50.20;;;;;;5033607;28;20174;-29
2022/04/21 09:53:44;;;;;;;5.47;4.28;;;14.30;50.60;;;;;;5027304;28;20181;-31
2022/04/21 09:56:10;;;;;;;6.38;4.40;;;14.00;50.40;;;;;;5034603;28;20184;-30
2022/04/21 09:58:39;;;;;;;7.00;4.03;;;14.00;50.40;;;;;;5016963;28;20194;-30
2022/04/21 10:01:06;;;;;;;4.85;2.50;;;14.00;50.20;;;;;;5034593;28;20529;-29
2022/04/21 10:03:35;;;;;;;4.55;3.40;;;13.90;50.30;;;;;;5034425;28;20217;-30
2022/04/21 10:06:02;;;;;;;7.25;5.32;;;13.90;50.20;;;;;;5034400;28;20253;-29
2022/04/21 10:08:29;;;;;;;6.75;3.92;;;13.80;50.50;;;;;;5033522;28;20702;-29
2022/04/21 10:10:56;;;;;;;4.45;3.70;;;13.90;50.30;;;;;;5034448;28;20181;-30
2022/04/21 10:13:22;;;;;;;3.45;2.97;;;13.90;50.20;;;;;;5034544;28;20214;-28
2022/04/21 10:15:51;;;;;;;3.33;2.78;;;13.90;50.20;;;;;;5034289;28;20178;-30
2022/04/21 10:18:17;;;;;;;4.93;4.10;;;13.90;50.30;;;;;;5034161;28;20212;-30
2022/04/21 10:20:45;;;;;;;4.28;3.28;;;14.00;50.40;;;;;;5034048;28;20174;-30
2022/04/21 10:23:16;;;;;;;4.00;2.95;;;14.00;50.50;;;;;;5034370;28;20209;-28
2022/04/21 10:25:45;;;;;;;4.35;2.95;;;14.00;50.20;;;;;;5034430;28;20174;-29
2022/04/21 10:28:38;;;;;;;3.95;2.97;;;14.10;50.20;;;;;;5033961;28;20674;-29
2022/04/21 10:31:35;;;;;;;5.43;2.92;;;14.10;50.10;;;;;;5033713;28;20181;-30
2022/04/21 10:34:07;;;;;;;3.78;2.90;;;14.10;50.10;;;;;;5027798;28;20644;-30
2022/04/21 10:36:40;;;;;;;5.38;3.95;;;14.10;50.20;;;;;;5034043;28;20205;-30
2022/04/21 10:39:17;;;;;;;4.50;3.15;;;14.10;50.30;;;;;;5033829;28;20325;-28
2022/04/21 10:41:43;;;;;;;4.35;2.17;;;14.10;50.20;;;;;;5033844;28;20170;-30
2022/04/21 10:44:13;;;;;;;6.40;3.43;;;14.10;50.40;;;;;;5033697;28;20640;-31
2022/04/21 10:46:39;;;;;;;4.35;2.80;;;14.10;50.30;;;;;;5034053;28;20467;-31
2022/04/21 10:49:05;;;;;;;4.03;3.20;;;14.10;50.20;;;;;;5033591;28;20206;-30
2022/04/21 10:57:28;;;;;;;4.20;3.22;;;14.30;50.20;;;;;;5033607;28;20580;-29
2022/04/21 11:00:08;;;;;;;4.90;4.28;;;14.30;50.70;;;;;;5033836;28;20174;-29
2022/04/21 11:02:45;;;;;;;6.72;4.75;;;14.40;50.10;;;;;;5033253;28;20235;-29
2022/04/21 11:05:22;;;;;;;5.88;3.65;;;14.40;50.00;;;;;;5033729;28;20170;-31
2022/04/21 11:07:55;;;;;;;9.43;4.22;;;14.40;49.90;;;;;;5033320;28;20238;-30
2022/04/21 11:10:39;;;;;;;3.53;2.67;;;14.50;50.00;;;;;;5033401;28;20232;-31
2022/04/21 11:13:09;;;;;;;4.75;3.20;;;14.50;49.70;;;;;;5033481;28;20170;-29
2022/04/21 11:15:36;;;;;;;4.90;3.50;;;14.50;49.50;;;;;;5033219;28;20170;-31
2022/04/21 11:18:12;;;;;;;5.95;3.25;;;14.50;49.50;;;;;;5033147;28;20256;-31
2022/04/21 11:20:43;;;;;;;4.22;2.42;;;14.50;49.60;;;;;;5033113;28;20169;-30
2022/04/21 11:23:10;;;;;;;5.10;3.92;;;14.50;49.50;;;;;;5033078;28;20184;-30
2022/04/21 11:25:36;;;;;;;4.38;3.45;;;14.40;49.30;;;;;;5033034;28;20174;-30
2022/04/21 11:28:02;;;;;;;5.60;4.20;;;14.40;49.40;;;;;;5015197;28;20201;-31
2022/04/21 11:30:32;;;;;;;7.60;4.90;;;14.40;49.20;;;;;;5032704;28;20918;-31
2022/04/21 11:32:59;;;;;;;5.53;3.00;;;14.50;50.10;;;;;;5033119;28;20178;-29
2022/04/21 11:35:25;;;;;;;7.97;4.53;;;14.50;49.40;;;;;;5032806;28;20666;-29
2022/04/21 11:37:57;;;;;;;4.63;3.90;;;14.60;49.30;;;;;;5032539;28;20217;-29
2022/04/21 11:40:31;;;;;;;5.82;3.90;;;14.60;49.20;;;;;;5015142;28;20174;-31
2022/04/21 11:42:59;;;;;;;4.72;3.10;;;14.50;49.30;;;;;;5032718;28;20162;-30
2022/04/21 11:45:38;;;;;;;4.55;3.00;;;14.50;49.10;;;;;;5032843;28;20253;-30
2022/04/21 11:48:15;;;;;;;4.43;3.35;;;14.40;49.00;;;;;;5032486;28;20200;-31
2022/04/21 11:50:45;;;;;;;7.10;4.35;;;14.40;49.00;;;;;;5032269;28;20212;-30
2022/04/21 11:53:19;;;;;;;7.00;3.83;;;14.40;49.20;;;;;;5032910;28;20186;-30
2022/04/21 11:55:45;;;;;;;6.72;3.88;;;14.40;48.80;;;;;;5015444;28;20669;-30
2022/04/21 11:58:12;;;;;;;7.22;3.58;;;14.40;48.70;;;;;;5032468;28;20218;-29
2022/04/21 12:08:50;;;;;;;4.88;3.30;;;14.60;48.90;;;;;;5032433;28;20583;-30
2022/04/21 12:11:19;;;;;;;5.73;3.53;;;14.60;48.80;;;;;;5032071;28;20166;-29
2022/04/21 12:13:47;;;;;;;5.68;3.83;;;14.60;48.70;;;;;;5033923;28;20227;-30
2022/04/21 12:16:35;;;;;;;4.53;3.42;;;14.70;48.70;;;;;;5034801;28;20189;-29
2022/04/21 12:19:38;;;;;;;6.50;4.00;;;14.70;48.70;;;;;;5034317;28;20676;-31
2022/04/21 12:22:18;;;;;;;3.80;3.38;;;14.80;48.60;;;;;;5029575;28;20217;-30
2022/04/21 12:24:44;;;;;;;4.22;2.80;;;14.80;48.50;;;;;;5032131;28;20196;-30
2022/04/21 12:27:23;;;;;;;5.63;3.40;;;14.80;48.50;;;;;;5032245;28;20186;-30
2022/04/21 12:30:00;;;;;;;6.20;3.92;;;14.80;48.50;;;;;;5031510;28;20194;-30
2022/04/21 12:32:29;;;;;;;5.18;3.08;;;14.90;48.40;;;;;;5031761;28;20526;-29
2022/04/21 12:35:02;;;;;;;4.95;2.85;;;14.90;48.40;;;;;;5032126;28;20555;-32
2022/04/21 12:37:30;;;;;;;3.72;2.63;;;14.90;48.40;;;;;;5031963;28;20625;-30
2022/04/21 12:40:00;;;;;;;5.68;3.20;;;15.00;48.00;;;;;;5032099;28;20174;-31
2022/04/21 12:42:29;;;;;;;4.38;3.92;;;15.10;48.20;;;;;;5031925;28;20241;-31
2022/04/21 12:44:55;;;;;;;5.90;3.13;;;15.10;48.10;;;;;;5031953;28;20253;-30
2022/04/21 12:47:22;;;;;;;6.13;3.75;;;15.10;48.10;;;;;;5032287;28;20617;-30
2022/04/21 12:50:01;;;;;;;5.18;3.22;;;15.20;48.00;;;;;;5031907;28;20201;-30
2022/04/21 12:52:42;;;;;;;5.88;3.25;;;15.40;48.20;;;;;;5031981;28;20162;-31
2022/04/21 12:55:09;;;;;;;4.93;2.17;;;15.50;48.00;;;;;;5031892;28;20219;-29
2022/04/21 12:57:36;;;;;;;5.93;3.35;;;15.50;47.80;;;;;;5031834;28;20186;-30
2022/04/21 13:00:04;;;;;;;6.30;3.70;;;15.60;47.40;;;;;;5031913;28;20185;-31
2022/04/21 13:02:30;;;;;;;3.60;2.50;;;15.60;47.40;;;;;;5031191;28;20185;-31
2022/04/21 13:04:57;;;;;;;5.63;3.50;;;15.60;47.10;;;;;;5031371;28;20178;-31
2022/04/21 13:07:23;;;;;;;5.45;3.42;;;15.70;47.10;;;;;;5031517;28;20224;-30
2022/04/21 13:09:50;;;;;;;4.85;2.95;;;15.70;46.90;;;;;;5031443;28;20194;-30
2022/04/21 13:12:16;;;;;;;5.82;3.63;;;15.70;46.70;;;;;;5031581;28;20254;-31
2022/04/21 13:14:41;;;;;;;11.07;5.50;;;15.70;46.70;;;;;;5031682;28;20225;-30
2022/04/21 13:17:08;;;;;;;6.87;5.30;;;15.70;46.70;;;;;;5031590;28;20910;-30
2022/04/21 13:19:33;;;;;;;6.85;4.05;;;15.60;46.70;;;;;;5031448;28;20591;-31
2022/04/21 13:22:00;;;;;;;5.50;3.40;;;15.60;46.70;;;;;;5031172;28;20269;-31
2022/04/21 13:24:30;;;;;;;5.60;4.05;;;15.60;46.70;;;;;;5031444;28;20178;-31
2022/04/21 13:26:58;;;;;;;6.50;3.13;;;15.60;46.60;;;;;;5031364;28;20174;-31
2022/04/21 13:29:24;;;;;;;9.25;4.30;;;15.60;46.20;;;;;;5031976;28;20606;-30
2022/04/21 13:34:35;;;;;;;6.60;4.53;;;15.40;46.30;;;;;;5031704;28;20250;-32
2022/04/21 13:37:02;;;;;;;4.55;3.28;;;15.40;46.00;;;;;;5031137;28;20591;-31
2022/04/21 13:39:29;;;;;;;6.32;3.42;;;15.30;45.90;;;;;;5031327;28;20261;-31
2022/04/21 13:41:55;;;;;;;5.05;3.10;;;15.30;45.80;;;;;;5031995;28;20224;-31
2022/04/21 13:44:21;;;;;;;5.50;4.00;;;15.30;46.20;;;;;;5034717;28;20206;-29
2022/04/21 13:46:46;;;;;;;4.57;3.20;;;15.20;46.10;;;;;;5034877;28;20178;-29
2022/04/21 13:49:12;;;;;;;5.40;3.83;;;15.10;46.30;;;;;;5034574;28;20897;-29
2022/04/21 13:51:39;;;;;;;6.27;4.17;;;15.10;46.60;;;;;;5034409;28;20174;-31